Ferry Katsuragi — JI3611 — position and weather

sailwx.info

Track history (hours):
 
Tides and Currents Weather Stations Pressure Air Temp Water Temp Dewpoint Dewpoint Depression Visibility Wind Speed Wind Dir Waves Ship Positions

Ferry Katsuragi

Last reported at 2014-Jul-26 14:33 UTC. Time now 2014-Jul-26 15:09 UTC.
Position N 34°12' E 135°02'.

Length 108 m; draft 4 m.

Type: Passenger vessel. MMSI: 431301245.

Date/timePositionNaut miles runAvg speedWind from/ knotsBaromVisibWave heightAir tempDewpointWater temp
2014-Jul-26 14:33N 34°12' E 135°02'11 3.3
2014-Jul-26 11:19N 34°08' E 134°50'1114.7
2014-Jul-26 10:33N 34°12' E 135°02'5 5.1
2014-Jul-26 09:33N 34°13' E 135°08'21 6.4
2014-Jul-26 06:11N 34°06' E 134°44'914.7
2014-Jul-26 05:33N 34°09' E 134°55'1212.4
2014-Jul-26 04:33N 34°13' E 135°09'6 5.8
2014-Jul-26 03:33N 34°11' E 135°02'10 3.3
2014-Jul-26 00:31N 34°08' E 134°51'1515.9
2014-Jul-25 23:33N 34°13' E 135°08'2 1.6
2014-Jul-25 22:33N 34°13' E 135°06'18 5.1
2014-Jul-25 19:05N 34°06' E 134°46'1014.5
2014-Jul-25 18:23N 34°10' E 134°57'1011.9
2014-Jul-25 17:33N 34°13' E 135°09'0 0.0
2014-Jul-25 16:33N 34°13' E 135°09'0 0.0
2014-Jul-25 15:33N 34°13' E 135°09'6 5.7
2014-Jul-25 14:33N 34°12' E 135°02'13 4.4
2014-Jul-25 11:33N 34°07' E 134°47'1414.3
2014-Jul-25 10:34N 34°12' E 135°03'5 4.6
2014-Jul-25 09:33N 34°13' E 135°08'11 2.8
2014-Jul-25 05:31N 34°08' E 134°56'1212.2
2014-Jul-25 04:33N 34°13' E 135°09'6 6.2
2014-Jul-25 03:33N 34°11' E 135°01'18 7.7
2014-Jul-25 01:09N 34°04' E 134°41'1415.3
2014-Jul-25 00:13N 34°09' E 134°57'1014.9
2014-Jul-24 23:34N 34°13' E 135°08'2 1.8
2014-Jul-24 22:34N 34°13' E 135°06'18 5.2
2014-Jul-24 19:07N 34°05' E 134°46'1214.6
2014-Jul-24 18:17N 34°10' E 134°59'811.6
2014-Jul-24 17:33N 34°13' E 135°09'0 0.0
2014-Jul-24 16:33N 34°13' E 135°09'0 0.0
2014-Jul-24 15:33N 34°13' E 135°09'6 5.6
2014-Jul-24 14:33N 34°12' E 135°02'12 3.9
2014-Jul-24 11:28N 34°07' E 134°49'1314.0
2014-Jul-24 10:34N 34°12' E 135°03'5 4.8
2014-Jul-24 09:34N 34°13' E 135°09'11 2.7
2014-Jul-24 05:29N 34°09' E 134°56'1112.1
2014-Jul-24 04:33N 34°13' E 135°09'5 5.4
2014-Jul-24 03:33N 34°12' E 135°02'5 1.4
2014-Jul-24 00:11N 34°10' E 134°57'915.1
2014-Jul-23 23:33N 34°13' E 135°08'2 1.9
2014-Jul-23 22:34N 34°13' E 135°06'17 4.9
2014-Jul-23 19:04N 34°07' E 134°46'914.3
2014-Jul-23 18:26N 34°09' E 134°57'1011.9
2014-Jul-23 17:33N 34°13' E 135°09'0 0.0
2014-Jul-23 16:33N 34°13' E 135°09'0 0.0
2014-Jul-23 15:33N 34°13' E 135°09'6 5.5
2014-Jul-23 14:33N 34°11' E 135°02'13 4.2
2014-Jul-23 11:30N 34°06' E 134°48'1314.2
2014-Jul-23 10:33N 34°12' E 135°03'5 5.0
2014-Jul-23 09:34N 34°13' E 135°09'21 6.0
2014-Jul-23 06:08N 34°07' E 134°45'1114.5
2014-Jul-23 05:23N 34°10' E 134°57'1011.9
2014-Jul-23 04:33N 34°13' E 135°09'7 6.9
2014-Jul-23 03:33N 34°10' E 135°01'7 2.4
2014-Jul-23 00:30N 34°09' E 134°52'1414.5
2014-Jul-22 23:33N 34°13' E 135°08'2 1.7
2014-Jul-22 22:33N 34°13' E 135°06'22 7.0
2014-Jul-22 19:26N 34°05' E 134°41'1414.0
2014-Jul-22 18:27N 34°09' E 134°57'1011.5
2014-Jul-22 17:33N 34°13' E 135°09'0 0.0
2014-Jul-22 16:33N 34°13' E 135°09'0 0.0
2014-Jul-22 15:33N 34°13' E 135°09'6 6.0
2014-Jul-22 14:33N 34°12' E 135°01'11 3.6
2014-Jul-22 11:28N 34°08' E 134°49'1213.1
2014-Jul-22 10:33N 34°12' E 135°03'5 4.8
2014-Jul-22 09:33N 34°13' E 135°08'21 6.4
2014-Jul-22 06:14N 34°06' E 134°44'1014.4
2014-Jul-22 05:33N 34°09' E 134°55'1211.8
2014-Jul-22 04:34N 34°13' E 135°09'6 6.2
2014-Jul-22 03:34N 34°11' E 135°01'3 0.7
2014-Jul-22 00:09N 34°10' E 134°58'914.5
2014-Jul-21 23:34N 34°13' E 135°08'2 2.1
2014-Jul-21 22:34N 34°13' E 135°06'18 5.2
2014-Jul-21 19:05N 34°06' E 134°46'1214.6
2014-Jul-21 18:17N 34°11' E 134°59'811.8
2014-Jul-21 17:33N 34°13' E 135°09'0 0.0
2014-Jul-21 16:33N 34°13' E 135°09'0 0.0
2014-Jul-21 15:33N 34°13' E 135°09'5 4.9
2014-Jul-21 14:33N 34°12' E 135°03'16 5.1
2014-Jul-21 11:30N 34°06' E 134°45'1616.5
2014-Jul-21 10:33N 34°12' E 135°03'5 5.0
2014-Jul-21 09:33N 34°13' E 135°09'10 2.3
2014-Jul-21 05:21N 34°10' E 134°58'1011.9
2014-Jul-21 04:34N 34°13' E 135°09'7 6.7
2014-Jul-21 03:32N 34°11' E 135°01'5 1.7
2014-Jul-21 00:19N 34°08' E 134°55'1215.4
2014-Jul-20 23:34N 34°13' E 135°08'3 3.1
2014-Jul-20 22:33N 34°12' E 135°04'17 4.8
2014-Jul-20 19:07N 34°06' E 134°46'1014.4
2014-Jul-20 18:26N 34°10' E 134°57'1112.0
2014-Jul-20 17:34N 34°13' E 135°09'0 0.0
2014-Jul-20 16:34N 34°13' E 135°09'0 0.0
2014-Jul-20 15:33N 34°13' E 135°09'6 5.5
2014-Jul-20 14:34N 34°12' E 135°02'12 3.7
2014-Jul-20 11:24N 34°08' E 134°49'1214.5
2014-Jul-20 10:33N 34°12' E 135°03'5 4.7
2014-Jul-20 09:33N 34°13' E 135°09'11 2.7
2014-Jul-20 05:28N 34°10' E 134°56'1112.0
2014-Jul-20 04:33N 34°13' E 135°09'7 6.7
2014-Jul-20 03:32N 34°10' E 135°01'4 1.3
2014-Jul-20 00:16N 34°10' E 134°56'1014.8
2014-Jul-19 23:34N 34°13' E 135°08'1 1.2
2014-Jul-19 22:33N 34°13' E 135°06'19 5.3
2014-Jul-19 19:06N 34°06' E 134°46'914.3
2014-Jul-19 18:27N 34°09' E 134°56'1112.3
2014-Jul-19 17:33N 34°13' E 135°09'0 0.0
2014-Jul-19 16:33N 34°13' E 135°09'0 0.0
2014-Jul-19 15:33N 34°13' E 135°09'6 6.3
2014-Jul-19 14:33N 34°11' E 135°01'14 4.5
2014-Jul-19 11:33N 34°06' E 134°46'1514.8
2014-Jul-19 10:33N 34°12' E 135°03'5 5.2
2014-Jul-19 09:33N 34°13' E 135°09'10 2.3
2014-Jul-19 05:23N 34°10' E 134°57'1011.7
2014-Jul-19 04:33N 34°13' E 135°09'6 5.6
2014-Jul-19 03:33N 34°11' E 135°02'7 2.0
2014-Jul-19 00:19N 34°09' E 134°54'1215.9
2014-Jul-18 23:33N 34°13' E 135°08'2 2.3
2014-Jul-18 22:33N 34°13' E 135°06'18 5.2
2014-Jul-18 19:08N 34°06' E 134°45'1014.4
2014-Jul-18 18:27N 34°10' E 134°56'1111.9
2014-Jul-18 17:34N 34°13' E 135°09'0 0.0
2014-Jul-18 16:33N 34°13' E 135°09'0 0.0
2014-Jul-18 15:33N 34°13' E 135°09'7 6.7
2014-Jul-18 14:33N 34°12' E 135°01'12 3.7
2014-Jul-18 11:28N 34°07' E 134°48'1314.4
2014-Jul-18 10:33N 34°12' E 135°03'5 5.0
2014-Jul-18 09:34N 34°13' E 135°08'10 2.3
2014-Jul-18 05:23N 34°10' E 134°58'1011.7
2014-Jul-18 04:33N 34°13' E 135°09'5 5.1
2014-Jul-18 03:33N 34°12' E 135°03'7 2.1
2014-Jul-18 00:20N 34°10' E 134°55'1114.6
2014-Jul-17 23:33N 34°13' E 135°08'2 2.1
2014-Jul-17 22:33N 34°13' E 135°06'9 2.3
2014-Jul-17 18:31N 34°09' E 134°55'1212.3
2014-Jul-17 17:33N 34°13' E 135°09'0 0.0
2014-Jul-17 16:33N 34°13' E 135°09'0 0.0
2014-Jul-17 15:33N 34°13' E 135°09'6 6.0
2014-Jul-17 14:33N 34°12' E 135°01'12 3.9
2014-Jul-17 11:26N 34°07' E 134°48'1314.8
2014-Jul-17 10:33N 34°12' E 135°03'5 5.1
2014-Jul-17 09:34N 34°13' E 135°09'10 2.4
2014-Jul-17 05:25N 34°10' E 134°57'1012.0
2014-Jul-17 04:34N 34°13' E 135°09'5 5.3
2014-Jul-17 03:33N 34°11' E 135°03'8 2.7
2014-Jul-17 00:28N 34°08' E 134°53'1415.0
2014-Jul-16 23:34N 34°13' E 135°08'2 1.9
2014-Jul-16 22:34N 34°13' E 135°06'20 6.1
2014-Jul-16 19:14N 34°05' E 134°44'1215.2
2014-Jul-16 18:26N 34°11' E 134°57'1011.5
2014-Jul-16 17:33N 34°13' E 135°09'0 0.0
2014-Jul-16 16:33N 34°13' E 135°09'0 0.0
2014-Jul-16 15:33N 34°13' E 135°09'  
Track history (hours):
 
Tides and Currents Weather Stations Pressure Air Temp Water Temp Dewpoint Dewpoint Depression Visibility Wind Speed Wind Dir Waves Ship Positions

Ferry Katsuragi

Last reported at 2014-Jul-26 14:33 UTC. Time now 2014-Jul-26 15:09 UTC.
Position N 34°12' E 135°02'.

Length 108 m; draft 4 m.

Type: Passenger vessel. MMSI: 431301245.

Date/timePositionNaut miles runAvg speedWind from/ knotsBaromVisibWave heightAir tempDewpointWater temp
2014-Jul-26 14:33N 34°12' E 135°02'11 3.3
2014-Jul-26 11:19N 34°08' E 134°50'1114.7
2014-Jul-26 10:33N 34°12' E 135°02'5 5.1
2014-Jul-26 09:33N 34°13' E 135°08'21 6.4
2014-Jul-26 06:11N 34°06' E 134°44'914.7
2014-Jul-26 05:33N 34°09' E 134°55'1212.4
2014-Jul-26 04:33N 34°13' E 135°09'6 5.8
2014-Jul-26 03:33N 34°11' E 135°02'10 3.3
2014-Jul-26 00:31N 34°08' E 134°51'1515.9
2014-Jul-25 23:33N 34°13' E 135°08'2 1.6
2014-Jul-25 22:33N 34°13' E 135°06'18 5.1
2014-Jul-25 19:05N 34°06' E 134°46'1014.5
2014-Jul-25 18:23N 34°10' E 134°57'1011.9
2014-Jul-25 17:33N 34°13' E 135°09'0 0.0
2014-Jul-25 16:33N 34°13' E 135°09'0 0.0
2014-Jul-25 15:33N 34°13' E 135°09'6 5.7
2014-Jul-25 14:33N 34°12' E 135°02'13 4.4
2014-Jul-25 11:33N 34°07' E 134°47'1414.3
2014-Jul-25 10:34N 34°12' E 135°03'5 4.6
2014-Jul-25 09:33N 34°13' E 135°08'11 2.8
2014-Jul-25 05:31N 34°08' E 134°56'1212.2
2014-Jul-25 04:33N 34°13' E 135°09'6 6.2
2014-Jul-25 03:33N 34°11' E 135°01'18 7.7
2014-Jul-25 01:09N 34°04' E 134°41'1415.3
2014-Jul-25 00:13N 34°09' E 134°57'1014.9
2014-Jul-24 23:34N 34°13' E 135°08'2 1.8
2014-Jul-24 22:34N 34°13' E 135°06'18 5.2
2014-Jul-24 19:07N 34°05' E 134°46'1214.6
2014-Jul-24 18:17N 34°10' E 134°59'811.6
2014-Jul-24 17:33N 34°13' E 135°09'0 0.0
2014-Jul-24 16:33N 34°13' E 135°09'0 0.0
2014-Jul-24 15:33N 34°13' E 135°09'6 5.6
2014-Jul-24 14:33N 34°12' E 135°02'12 3.9
2014-Jul-24 11:28N 34°07' E 134°49'1314.0
2014-Jul-24 10:34N 34°12' E 135°03'5 4.8
2014-Jul-24 09:34N 34°13' E 135°09'11 2.7
2014-Jul-24 05:29N 34°09' E 134°56'1112.1
2014-Jul-24 04:33N 34°13' E 135°09'5 5.4
2014-Jul-24 03:33N 34°12' E 135°02'5 1.4
2014-Jul-24 00:11N 34°10' E 134°57'915.1
2014-Jul-23 23:33N 34°13' E 135°08'2 1.9
2014-Jul-23 22:34N 34°13' E 135°06'17 4.9
2014-Jul-23 19:04N 34°07' E 134°46'914.3
2014-Jul-23 18:26N 34°09' E 134°57'1011.9
2014-Jul-23 17:33N 34°13' E 135°09'0 0.0
2014-Jul-23 16:33N 34°13' E 135°09'0 0.0
2014-Jul-23 15:33N 34°13' E 135°09'6 5.5
2014-Jul-23 14:33N 34°11' E 135°02'13 4.2
2014-Jul-23 11:30N 34°06' E 134°48'1314.2
2014-Jul-23 10:33N 34°12' E 135°03'5 5.0
2014-Jul-23 09:34N 34°13' E 135°09'21 6.0
2014-Jul-23 06:08N 34°07' E 134°45'1114.5
2014-Jul-23 05:23N 34°10' E 134°57'1011.9
2014-Jul-23 04:33N 34°13' E 135°09'7 6.9
2014-Jul-23 03:33N 34°10' E 135°01'7 2.4
2014-Jul-23 00:30N 34°09' E 134°52'1414.5
2014-Jul-22 23:33N 34°13' E 135°08'2 1.7
2014-Jul-22 22:33N 34°13' E 135°06'22 7.0
2014-Jul-22 19:26N 34°05' E 134°41'1414.0
2014-Jul-22 18:27N 34°09' E 134°57'1011.5
2014-Jul-22 17:33N 34°13' E 135°09'0 0.0
2014-Jul-22 16:33N 34°13' E 135°09'0 0.0
2014-Jul-22 15:33N 34°13' E 135°09'6 6.0
2014-Jul-22 14:33N 34°12' E 135°01'11 3.6
2014-Jul-22 11:28N 34°08' E 134°49'1213.1
2014-Jul-22 10:33N 34°12' E 135°03'5 4.8
2014-Jul-22 09:33N 34°13' E 135°08'21 6.4
2014-Jul-22 06:14N 34°06' E 134°44'1014.4
2014-Jul-22 05:33N 34°09' E 134°55'1211.8
2014-Jul-22 04:34N 34°13' E 135°09'6 6.2
2014-Jul-22 03:34N 34°11' E 135°01'3 0.7
2014-Jul-22 00:09N 34°10' E 134°58'914.5
2014-Jul-21 23:34N 34°13' E 135°08'2 2.1
2014-Jul-21 22:34N 34°13' E 135°06'18 5.2
2014-Jul-21 19:05N 34°06' E 134°46'1214.6
2014-Jul-21 18:17N 34°11' E 134°59'811.8
2014-Jul-21 17:33N 34°13' E 135°09'0 0.0
2014-Jul-21 16:33N 34°13' E 135°09'0 0.0
2014-Jul-21 15:33N 34°13' E 135°09'5 4.9
2014-Jul-21 14:33N 34°12' E 135°03'16 5.1
2014-Jul-21 11:30N 34°06' E 134°45'1616.5
2014-Jul-21 10:33N 34°12' E 135°03'5 5.0
2014-Jul-21 09:33N 34°13' E 135°09'10 2.3
2014-Jul-21 05:21N 34°10' E 134°58'1011.9
2014-Jul-21 04:34N 34°13' E 135°09'7 6.7
2014-Jul-21 03:32N 34°11' E 135°01'5 1.7
2014-Jul-21 00:19N 34°08' E 134°55'1215.4
2014-Jul-20 23:34N 34°13' E 135°08'3 3.1
2014-Jul-20 22:33N 34°12' E 135°04'17 4.8
2014-Jul-20 19:07N 34°06' E 134°46'1014.4
2014-Jul-20 18:26N 34°10' E 134°57'1112.0
2014-Jul-20 17:34N 34°13' E 135°09'0 0.0
2014-Jul-20 16:34N 34°13' E 135°09'0 0.0
2014-Jul-20 15:33N 34°13' E 135°09'6 5.5
2014-Jul-20 14:34N 34°12' E 135°02'12 3.7
2014-Jul-20 11:24N 34°08' E 134°49'1214.5
2014-Jul-20 10:33N 34°12' E 135°03'5 4.7
2014-Jul-20 09:33N 34°13' E 135°09'11 2.7
2014-Jul-20 05:28N 34°10' E 134°56'1112.0
2014-Jul-20 04:33N 34°13' E 135°09'7 6.7
2014-Jul-20 03:32N 34°10' E 135°01'4 1.3
2014-Jul-20 00:16N 34°10' E 134°56'1014.8
2014-Jul-19 23:34N 34°13' E 135°08'1 1.2
2014-Jul-19 22:33N 34°13' E 135°06'19 5.3
2014-Jul-19 19:06N 34°06' E 134°46'914.3
2014-Jul-19 18:27N 34°09' E 134°56'1112.3
2014-Jul-19 17:33N 34°13' E 135°09'0 0.0
2014-Jul-19 16:33N 34°13' E 135°09'0 0.0
2014-Jul-19 15:33N 34°13' E 135°09'6 6.3
2014-Jul-19 14:33N 34°11' E 135°01'14 4.5
2014-Jul-19 11:33N 34°06' E 134°46'1514.8
2014-Jul-19 10:33N 34°12' E 135°03'5 5.2
2014-Jul-19 09:33N 34°13' E 135°09'10 2.3
2014-Jul-19 05:23N 34°10' E 134°57'1011.7
2014-Jul-19 04:33N 34°13' E 135°09'6 5.6
2014-Jul-19 03:33N 34°11' E 135°02'7 2.0
2014-Jul-19 00:19N 34°09' E 134°54'1215.9
2014-Jul-18 23:33N 34°13' E 135°08'2 2.3
2014-Jul-18 22:33N 34°13' E 135°06'18 5.2
2014-Jul-18 19:08N 34°06' E 134°45'1014.4
2014-Jul-18 18:27N 34°10' E 134°56'1111.9
2014-Jul-18 17:34N 34°13' E 135°09'0 0.0
2014-Jul-18 16:33N 34°13' E 135°09'0 0.0
2014-Jul-18 15:33N 34°13' E 135°09'7 6.7
2014-Jul-18 14:33N 34°12' E 135°01'12 3.7
2014-Jul-18 11:28N 34°07' E 134°48'1314.4
2014-Jul-18 10:33N 34°12' E 135°03'5 5.0
2014-Jul-18 09:34N 34°13' E 135°08'10 2.3
2014-Jul-18 05:23N 34°10' E 134°58'1011.7
2014-Jul-18 04:33N 34°13' E 135°09'5 5.1
2014-Jul-18 03:33N 34°12' E 135°03'7 2.1
2014-Jul-18 00:20N 34°10' E 134°55'1114.6
2014-Jul-17 23:33N 34°13' E 135°08'2 2.1
2014-Jul-17 22:33N 34°13' E 135°06'9 2.3
2014-Jul-17 18:31N 34°09' E 134°55'1212.3
2014-Jul-17 17:33N 34°13' E 135°09'0 0.0
2014-Jul-17 16:33N 34°13' E 135°09'0 0.0
2014-Jul-17 15:33N 34°13' E 135°09'6 6.0
2014-Jul-17 14:33N 34°12' E 135°01'12 3.9
2014-Jul-17 11:26N 34°07' E 134°48'1314.8
2014-Jul-17 10:33N 34°12' E 135°03'5 5.1
2014-Jul-17 09:34N 34°13' E 135°09'10 2.4
2014-Jul-17 05:25N 34°10' E 134°57'1012.0
2014-Jul-17 04:34N 34°13' E 135°09'5 5.3
2014-Jul-17 03:33N 34°11' E 135°03'8 2.7
2014-Jul-17 00:28N 34°08' E 134°53'1415.0
2014-Jul-16 23:34N 34°13' E 135°08'2 1.9
2014-Jul-16 22:34N 34°13' E 135°06'20 6.1
2014-Jul-16 19:14N 34°05' E 134°44'1215.2
2014-Jul-16 18:26N 34°11' E 134°57'1011.5
2014-Jul-16 17:33N 34°13' E 135°09'0 0.0
2014-Jul-16 16:33N 34°13' E 135°09'0 0.0
2014-Jul-16 15:33N 34°13' E 135°09'  

Dump ship's entire track history